WIDD/BTH METAR and TAF weather

Enter ICAO airport designator
Station Type Date Time Source
WIDD METAR 2019/02/16 07:00 UTC NOAA

WIDD 160700Z 05010KT 9999 FEW014 31/23 Q1013


Station Type Date Time Source
WIDD Decoded METAR 2019/02/16 07:00 UTC NOAA

Station name not available
Feb 16, 2019 - 02:00 AM EST / 2019.02.16 0700 UTC
Wind: from the NE (050 degrees) at 12 MPH (10 KT):0
Visibility: greater than 7 mile(s):0
Sky conditions: mostly clear
Temperature: 87 F (31 C)
Heat index: 93.9 F (34.4 C):1
Dew Point: 73 F (23 C)
Relative Humidity: 62%
Pressure (altimeter): 29.91 in. Hg (1013 hPa)
ob: WIDD 160700Z 05010KT 9999 FEW014 31/23 Q1013
cycle: 7

Station Type Date Time Source
WIDD TAF 2019/02/16 06:00 UTC NOAA

TAF WIDD 160500Z 1606/1706 04008KT 9999 SCT014=


Example: see airport list